Timeline UpdatesTrip UpdatesNews PostsPvt PostsTravel TipsAdmin PostsConv PostsFollowed PostsChat RequestsBlog PostsPNR Posts

Disclaimer
Search
 
 
Fri Aug 29, 2014 17:33:00 ISTHomeTrainsΣChainsAtlasPNRForumGalleryNewsFAQTripsMembersLoginFeedback
No Recent News for this Train
Other Trains in the News **new
Latest...
Shall run from BNW on 17th March, 2011. News Post# 19412
Wed Mar 16, 2011 (09:33PM)
⇐ Return Journey: Train# 54784

54783/Fazilka Rewari Passenger (UnReserved)

Sep 11 2013 (10:58PM)
Change Departure Station:
Change Arrival Station:
Post a Train Travel TipPost a Train Travel Tip **new
Post a Comment/Question/Picture/VideoPost a Comment/Question/Picture/Video
Pantry/Catering
???
RSA - Rake Sharing
Rake/Coach Composition
Loco
News    PNR    Forum    Time-Table    Availability    Fare Chart    Map    Arr/Dep History    Trips    Gallery    ΣChains    X/O    Timeline    
Travel Time: 11h 4m    51 halts    Distance: 374 km    Avg Speed: 33 km/hr
Type: Passenger
Zone: NWR/North Western
Departs @ 08:35 (Avg 3m late)
Platform# ???
SMTWTFS
Fazilka Junction/FKA 
Arrives @ 19:39
Platform# 1
SMTWTFS
Patuwas Mehrana/PUW 

51 halts. 51 intermediate Stations between Fazilka Junction and Patuwas Mehrana

Show ALL intermediate Stations  Show Old Time-Table

#CodeStation NameX/OArrivesAvgDepartsAvgHaltPFDay#KmSpeedElevZoneAddress
1FKA»Fazilka Junction (2)»  -08:35+3--10.076181mNRFazilka, Punjab
2CKLAChak Banwala  08:45-08:46-1m--112.741182mNRChimne Wala, Punjab
3CKAChak Pakhewala  08:52-08:53-1m--116.738183mNRChimne Wala, Punjab
4RRWRoranwalaX  09:02-09:03-1m--122.463188mNRJandwala Bhimeshah, Punjab
5LKWLakhewali (1)  09:11+709:13+102m1130.940194mNRCourt Rd, Punjab
6BSGRBhagsar  09:21-09:22-1m--136.359197mNRRamgarh Chungha, Punjab
7BDBGBadhai Balamgarh Halt  09:27-09:28-1m--141.250200mNRBadhai Balamgarh, Punjab
8MKSMuktsar  09:36+1109:38+122m1147.845199mNRMuktsar, Punjab
9CWNCharawan  09:47-09:48-1m--154.634201mNRState Highway 16, Punjab
10JBWJhabelwali  09:52-09:53-1m--156.956201mNRState Highway 16, Punjab
11BRWBariwala  09:59+1310:01+132m--162.452206mNRMandi Bariwala, Punjab
12WDJWanderjatana  10:11-10:12-1m--171.134203mNRState Highway 16, Punjab
13KKPKot Kapura Junction (3)  10:28+810:30+92m1180.1610mNRKotkapura, Punjab
14RLSRomana Albel Singh (1)  10:38+1310:40+142m1188.334208mNRKotkapura Jaitu Rd, Punjab
15AJTMAjitgill Matta (1)  10:46-10:47-1m1191.747209mNRKotkapura Jaitu Rd, Punjab
16GJUTGangsar Jaitu (3)X  10:53+1210:55+162m--196.437207mNRJaitu, Punjab
17CBXChand Bhan  11:06+1211:08+122m--1103.156211mNRJaitu, Punjab
18GNAGoneana Bhai Jagta (3)  11:16+1311:18+122m--1110.520206mNRGoniana, Punjab
19BTIBathinda Junction (6)X  11:55+012:40+145m--1122.860208mNRBathinda, Punjab
20GHBGahri Bhagi  12:54-12:55-1m--1136.917205mNWRGahri Bhagi, Punjab
21SGAShergarh  13:02+513:03+51m--1138.931205mNWRBathinda, Punjab
22MKBHManwala Kot Bak  13:09-13:10-1m--1141.943208mNWRManwala Kot Bak, Punjab
23BNLSBangi Nihalsingh  13:15-13:16-1m--1145.552207mNWRBangi Nihalsingh, Punjab
24RMNRaman  13:22+413:23+61m--1150.744204mNWRRama Mandi, Punjab
25RKKRatangarh Kanakwal  13:31+613:32+71m--1156.649205mNWRRatangarh Kanakwal, Punjab
26KNLKalanwali  13:42+613:43+71m--1164.844206mNWRKalanwali, Haryana
27SCVSukhchain  13:53-13:54-1m--1172.159206mNWRSukhchain, Haryana
28BGDBara Gudah  14:02+514:03+61m--1180.150204mNWRBara Gudha, Haryana
29SSASirsaX  14:25+214:40+915m--1198.340203mNWRSirsa, Haryana
30BJKNBajekan  14:47-14:48-1m--1203.067203mNWRBajekan, Haryana
31SHNSuchan Kotli  14:57+1214:58+131m--1213.043205mNWRSuchan, Haryana
32JOKJodhka  15:04-15:05-1m--1217.346205mNWRSirsa, Haryana
33DINGDing  15:12+1215:13+131m--1222.652206mNWRSirsa, Haryana
34MHULMehuwala Halt  15:22-15:23-1m--1230.436210mNWRMehuwala Halt, Haryana
35BHTBhattu  15:29+1115:30+121m--1234.049212mNWRBhattu Kalan, Haryana
36KBKNKhabra Kalan  15:38-15:39-1m--1240.565216mNWRKhabra Kalan, Haryana
37ADRMandi Adampur  15:49+1015:50+111m--1251.359210mNWRHisar, Haryana
38JKHIJakhod Khera  16:03+1116:04+141m--1264.146211mNWRJakhodlkhera, Haryana
39NKNNyoli Kalan  16:12-16:13-1m--1270.249213mNWRNyoli Kalan, Haryana
40HSRHisar Junction (6)X  16:25+1017:10+945m--1280.157215mNWRHisar, Haryana
41STDSatrod  17:21+1517:22+161m--1290.635215mNWRHisar, Haryana
42MAYRMayar  17:29-17:30-1m--1294.756216mNWRMayar, Haryana
43HNSHansi (1)  17:39+1417:40+151m11303.238217mNWRHissar, Haryana
44AUNAurang Nagar  17:49-17:50-1m--1309.050216mNWRAurang Nagar, Haryana
45JKZJitakheri  17:55+1617:56+181m--1313.254217mNWRBhiwani, Haryana
46BWKBawani KheraX  18:06+1918:08+262m--1322.135215mNWRBawani Khera, Haryana
47SUISui  18:17-18:18-1m--1327.428216mNWRBhiwani, Haryana
48BNWBhiwani Junction (3)  18:45+1518:55+1610m--1340.150216mNWRBhiwani, Haryana
49DZLDhana Ladanpur (1)X  19:02-19:03-1m11345.967219mNWRDhana Ladanpur, Haryana
50MHUManheru (1)  19:10+1019:11+171m11353.744216mNWRBhiwani, Haryana
51FGHFatehgarh Haryana (1)  19:20-19:21-1m11360.456217mNWRFatehgarh, Haryana
52CKDCharkhi Dadri (1)  19:28+1919:30+202m11367.049217mNWRDist. Bhiwani, Haryana
53PUW•Patuwas Mehrana (1)•  19:39-19:40-1m11374.370226mNWRMehrana, Haryana
54JRLJharili (1)X  19:46+2119:47+221m11381.348234mNWRJhajjar, Haryana
55SDRASudharana (1)  19:57+2619:58+271m11389.449230mNWRSudharana, Haryana
56KSIKosli (1)  20:05+2120:06+231m11395.152236mNWRTumna Rd, Haryana
57NLQNangal Pathani Halt (1)  20:13-20:14-1m11401.152231mNWRNangal Pathani, Haryana
58JTSJatusana (1)  20:19+2420:20+241m11405.555243mNWRNanagal Pathani Rd, Haryana
59KGBSKishangarh Balawas (1)  20:30+2420:31+261m11414.613240mNWRKishengarh, Haryana
60RERewari Junction (8)  21:10+4-81423.0-245mNWRRewari, Haryana
Scroll to Top
Scroll to Bottom